sensor_id;sensor_type;location;lat;lon;timestamp;temperature;humidity
22035;DHT22;11181;51.002;4.356;2023-01-29T00:01:15;3.30;99.90
22035;DHT22;11181;51.002;4.356;2023-01-29T00:03:42;3.20;99.90
22035;DHT22;11181;51.002;4.356;2023-01-29T00:06:12;3.20;99.90
22035;DHT22;11181;51.002;4.356;2023-01-29T00:08:40;3.20;99.90
22035;DHT22;11181;51.002;4.356;2023-01-29T00:11:08;3.20;99.90
22035;DHT22;11181;51.002;4.356;2023-01-29T00:13:35;3.20;99.90
22035;DHT22;11181;51.002;4.356;2023-01-29T00:16:02;3.20;99.90
22035;DHT22;11181;51.002;4.356;2023-01-29T00:18:30;3.10;99.90
22035;DHT22;11181;51.002;4.356;2023-01-29T00:20:57;3.10;99.90
22035;DHT22;11181;51.002;4.356;2023-01-29T00:23:24;3.10;99.90
22035;DHT22;11181;51.002;4.356;2023-01-29T00:25:52;3.10;99.90
22035;DHT22;11181;51.002;4.356;2023-01-29T00:28:19;3.10;99.90
22035;DHT22;11181;51.002;4.356;2023-01-29T00:30:46;3.10;99.90
22035;DHT22;11181;51.002;4.356;2023-01-29T00:33:13;3.00;99.90
22035;DHT22;11181;51.002;4.356;2023-01-29T00:35:40;3.00;99.90
22035;DHT22;11181;51.002;4.356;2023-01-29T00:38:07;3.00;99.90
22035;DHT22;11181;51.002;4.356;2023-01-29T00:40:37;3.10;99.90
22035;DHT22;11181;51.002;4.356;2023-01-29T00:43:20;3.10;99.90
22035;DHT22;11181;51.002;4.356;2023-01-29T00:46:04;3.10;99.90
22035;DHT22;11181;51.002;4.356;2023-01-29T00:48:32;3.10;99.90
22035;DHT22;11181;51.002;4.356;2023-01-29T00:50:59;3.00;99.90
22035;DHT22;11181;51.002;4.356;2023-01-29T00:53:26;3.00;99.90
22035;DHT22;11181;51.002;4.356;2023-01-29T00:55:53;3.00;99.90
22035;DHT22;11181;51.002;4.356;2023-01-29T00:58:22;3.00;99.90
22035;DHT22;11181;51.002;4.356;2023-01-29T01:00:59;3.00;99.90
22035;DHT22;11181;51.002;4.356;2023-01-29T01:03:27;3.00;99.90
22035;DHT22;11181;51.002;4.356;2023-01-29T01:06:02;3.00;99.90
22035;DHT22;11181;51.002;4.356;2023-01-29T01:08:29;2.90;99.90
22035;DHT22;11181;51.002;4.356;2023-01-29T01:11:14;2.90;99.90
22035;DHT22;11181;51.002;4.356;2023-01-29T01:13:42;3.00;99.90
22035;DHT22;11181;51.002;4.356;2023-01-29T01:16:10;3.00;99.90
22035;DHT22;11181;51.002;4.356;2023-01-29T01:18:37;3.00;99.90
22035;DHT22;11181;51.002;4.356;2023-01-29T01:21:04;3.00;99.90
22035;DHT22;11181;51.002;4.356;2023-01-29T01:23:31;3.00;99.90
22035;DHT22;11181;51.002;4.356;2023-01-29T01:25:58;3.00;99.90
22035;DHT22;11181;51.002;4.356;2023-01-29T01:28:26;3.00;99.90
22035;DHT22;11181;51.002;4.356;2023-01-29T01:30:54;2.90;99.90
22035;DHT22;11181;51.002;4.356;2023-01-29T01:33:21;2.90;99.90
22035;DHT22;11181;51.002;4.356;2023-01-29T01:35:49;2.90;99.90
22035;DHT22;11181;51.002;4.356;2023-01-29T01:38:16;2.80;99.90
22035;DHT22;11181;51.002;4.356;2023-01-29T01:40:44;2.80;99.90
22035;DHT22;11181;51.002;4.356;2023-01-29T01:43:11;2.80;99.90
22035;DHT22;11181;51.002;4.356;2023-01-29T01:45:38;2.80;99.90
22035;DHT22;11181;51.002;4.356;2023-01-29T01:48:09;2.80;99.90
22035;DHT22;11181;51.002;4.356;2023-01-29T01:50:42;2.90;99.90
22035;DHT22;11181;51.002;4.356;2023-01-29T01:53:13;2.80;99.90
22035;DHT22;11181;51.002;4.356;2023-01-29T01:55:44;2.80;99.90
22035;DHT22;11181;51.002;4.356;2023-01-29T01:58:16;2.80;99.90
22035;DHT22;11181;51.002;4.356;2023-01-29T02:00:44;2.80;99.90
22035;DHT22;11181;51.002;4.356;2023-01-29T02:03:12;2.80;99.90
22035;DHT22;11181;51.002;4.356;2023-01-29T02:05:58;2.80;99.90
22035;DHT22;11181;51.002;4.356;2023-01-29T02:08:48;2.80;99.90
22035;DHT22;11181;51.002;4.356;2023-01-29T02:11:35;2.90;99.90
22035;DHT22;11181;51.002;4.356;2023-01-29T02:14:02;2.90;99.90
22035;DHT22;11181;51.002;4.356;2023-01-29T02:16:29;2.80;99.90
22035;DHT22;11181;51.002;4.356;2023-01-29T02:19:00;2.80;99.90
22035;DHT22;11181;51.002;4.356;2023-01-29T02:21:51;2.80;99.90
22035;DHT22;11181;51.002;4.356;2023-01-29T02:24:54;2.90;99.90
22035;DHT22;11181;51.002;4.356;2023-01-29T02:27:32;2.80;99.90
22035;DHT22;11181;51.002;4.356;2023-01-29T02:30:11;2.80;99.90
22035;DHT22;11181;51.002;4.356;2023-01-29T02:32:44;2.80;99.90
22035;DHT22;11181;51.002;4.356;2023-01-29T02:35:24;2.70;99.90
22035;DHT22;11181;51.002;4.356;2023-01-29T02:37:56;2.70;99.90
22035;DHT22;11181;51.002;4.356;2023-01-29T02:40:29;2.60;99.90
22035;DHT22;11181;51.002;4.356;2023-01-29T02:43:04;2.60;99.90
22035;DHT22;11181;51.002;4.356;2023-01-29T02:45:42;2.60;99.90
22035;DHT22;11181;51.002;4.356;2023-01-29T02:48:17;2.60;99.90
22035;DHT22;11181;51.002;4.356;2023-01-29T02:50:47;2.50;99.90
22035;DHT22;11181;51.002;4.356;2023-01-29T02:53:20;2.50;99.90
22035;DHT22;11181;51.002;4.356;2023-01-29T02:55:52;2.60;99.90
22035;DHT22;11181;51.002;4.356;2023-01-29T02:58:28;2.60;99.90
22035;DHT22;11181;51.002;4.356;2023-01-29T03:01:00;2.50;99.90
22035;DHT22;11181;51.002;4.356;2023-01-29T03:03:33;2.60;99.90
22035;DHT22;11181;51.002;4.356;2023-01-29T03:06:05;2.60;99.90
22035;DHT22;11181;51.002;4.356;2023-01-29T03:08:36;2.60;99.90
22035;DHT22;11181;51.002;4.356;2023-01-29T03:11:09;2.70;99.90
22035;DHT22;11181;51.002;4.356;2023-01-29T03:13:44;2.70;99.90
22035;DHT22;11181;51.002;4.356;2023-01-29T03:16:19;2.70;99.90
22035;DHT22;11181;51.002;4.356;2023-01-29T03:18:52;2.70;99.90
22035;DHT22;11181;51.002;4.356;2023-01-29T03:21:24;2.80;99.90
22035;DHT22;11181;51.002;4.356;2023-01-29T03:24:12;2.70;99.90
22035;DHT22;11181;51.002;4.356;2023-01-29T03:27:01;2.80;99.90
22035;DHT22;11181;51.002;4.356;2023-01-29T03:29:48;2.70;99.90
22035;DHT22;11181;51.002;4.356;2023-01-29T03:32:35;2.80;99.90
22035;DHT22;11181;51.002;4.356;2023-01-29T03:35:05;2.90;99.90
22035;DHT22;11181;51.002;4.356;2023-01-29T03:37:35;3.00;99.90
22035;DHT22;11181;51.002;4.356;2023-01-29T03:40:05;3.00;99.90
22035;DHT22;11181;51.002;4.356;2023-01-29T03:42:41;3.10;99.90
22035;DHT22;11181;51.002;4.356;2023-01-29T03:45:14;3.20;99.90
22035;DHT22;11181;51.002;4.356;2023-01-29T03:47:46;3.10;99.90
22035;DHT22;11181;51.002;4.356;2023-01-29T03:50:30;3.00;99.90
22035;DHT22;11181;51.002;4.356;2023-01-29T03:53:05;2.70;99.90
22035;DHT22;11181;51.002;4.356;2023-01-29T03:55:39;2.40;99.90
22035;DHT22;11181;51.002;4.356;2023-01-29T03:58:18;2.30;99.90
22035;DHT22;11181;51.002;4.356;2023-01-29T04:00:51;2.40;99.90
22035;DHT22;11181;51.002;4.356;2023-01-29T04:03:23;2.70;99.90
22035;DHT22;11181;51.002;4.356;2023-01-29T04:05:54;2.90;99.90
22035;DHT22;11181;51.002;4.356;2023-01-29T04:08:26;3.00;99.90
22035;DHT22;11181;51.002;4.356;2023-01-29T04:10:56;3.10;99.90
22035;DHT22;11181;51.002;4.356;2023-01-29T04:13:25;3.20;99.90
22035;DHT22;11181;51.002;4.356;2023-01-29T04:15:57;3.30;99.90
22035;DHT22;11181;51.002;4.356;2023-01-29T04:18:25;3.30;99.90
22035;DHT22;11181;51.002;4.356;2023-01-29T04:20:52;3.40;99.90
22035;DHT22;11181;51.002;4.356;2023-01-29T04:23:21;3.40;99.90
22035;DHT22;11181;51.002;4.356;2023-01-29T04:25:55;3.40;99.90
22035;DHT22;11181;51.002;4.356;2023-01-29T04:28:45;3.20;99.90
22035;DHT22;11181;51.002;4.356;2023-01-29T04:31:17;3.20;99.90
22035;DHT22;11181;51.002;4.356;2023-01-29T04:33:57;3.20;99.90
22035;DHT22;11181;51.002;4.356;2023-01-29T04:36:35;3.10;99.90
22035;DHT22;11181;51.002;4.356;2023-01-29T04:39:11;3.10;99.90
22035;DHT22;11181;51.002;4.356;2023-01-29T04:41:47;3.20;99.90
22035;DHT22;11181;51.002;4.356;2023-01-29T04:44:19;3.30;99.90
22035;DHT22;11181;51.002;4.356;2023-01-29T04:46:53;3.40;99.90
22035;DHT22;11181;51.002;4.356;2023-01-29T04:49:31;3.50;99.90
22035;DHT22;11181;51.002;4.356;2023-01-29T04:52:07;3.50;99.90
22035;DHT22;11181;51.002;4.356;2023-01-29T04:54:46;3.60;99.90
22035;DHT22;11181;51.002;4.356;2023-01-29T04:57:18;3.60;99.90
22035;DHT22;11181;51.002;4.356;2023-01-29T04:59:55;3.50;99.90
22035;DHT22;11181;51.002;4.356;2023-01-29T05:02:23;3.60;99.90
22035;DHT22;11181;51.002;4.356;2023-01-29T05:04:53;3.60;99.90
22035;DHT22;11181;51.002;4.356;2023-01-29T05:07:23;3.70;99.90
22035;DHT22;11181;51.002;4.356;2023-01-29T05:09:51;3.80;99.90
22035;DHT22;11181;51.002;4.356;2023-01-29T05:12:19;3.90;99.90
22035;DHT22;11181;51.002;4.356;2023-01-29T05:14:47;4.00;99.90
22035;DHT22;11181;51.002;4.356;2023-01-29T05:17:16;3.90;99.90
22035;DHT22;11181;51.002;4.356;2023-01-29T05:19:44;3.90;99.90
22035;DHT22;11181;51.002;4.356;2023-01-29T05:22:16;3.90;99.90
22035;DHT22;11181;51.002;4.356;2023-01-29T05:24:47;3.70;99.90
22035;DHT22;11181;51.002;4.356;2023-01-29T05:27:17;3.60;99.90
22035;DHT22;11181;51.002;4.356;2023-01-29T05:30:03;3.60;99.90
22035;DHT22;11181;51.002;4.356;2023-01-29T05:32:30;3.60;99.90
22035;DHT22;11181;51.002;4.356;2023-01-29T05:34:57;3.60;99.90
22035;DHT22;11181;51.002;4.356;2023-01-29T05:37:26;3.50;99.90
22035;DHT22;11181;51.002;4.356;2023-01-29T05:39:52;3.50;99.90
22035;DHT22;11181;51.002;4.356;2023-01-29T05:42:20;3.40;99.90
22035;DHT22;11181;51.002;4.356;2023-01-29T05:44:47;3.50;99.90
22035;DHT22;11181;51.002;4.356;2023-01-29T05:47:17;3.60;99.90
22035;DHT22;11181;51.002;4.356;2023-01-29T05:49:44;3.60;99.90
22035;DHT22;11181;51.002;4.356;2023-01-29T05:52:11;3.60;99.90
22035;DHT22;11181;51.002;4.356;2023-01-29T05:54:39;3.50;99.90
22035;DHT22;11181;51.002;4.356;2023-01-29T05:57:06;3.50;99.90
22035;DHT22;11181;51.002;4.356;2023-01-29T05:59:33;3.50;99.90
22035;DHT22;11181;51.002;4.356;2023-01-29T06:02:00;3.40;99.90
22035;DHT22;11181;51.002;4.356;2023-01-29T06:04:26;3.40;99.90
22035;DHT22;11181;51.002;4.356;2023-01-29T06:06:53;3.50;99.90
22035;DHT22;11181;51.002;4.356;2023-01-29T06:09:20;3.60;99.90
22035;DHT22;11181;51.002;4.356;2023-01-29T06:11:48;3.70;99.90
22035;DHT22;11181;51.002;4.356;2023-01-29T06:14:15;3.70;99.90
22035;DHT22;11181;51.002;4.356;2023-01-29T06:16:42;3.60;99.90
22035;DHT22;11181;51.002;4.356;2023-01-29T06:19:09;3.50;99.90
22035;DHT22;11181;51.002;4.356;2023-01-29T06:21:36;3.40;99.90
22035;DHT22;11181;51.002;4.356;2023-01-29T06:24:03;3.40;99.90
22035;DHT22;11181;51.002;4.356;2023-01-29T06:26:30;3.30;99.90
22035;DHT22;11181;51.002;4.356;2023-01-29T06:28:59;3.40;99.90
22035;DHT22;11181;51.002;4.356;2023-01-29T06:31:26;3.40;99.90
22035;DHT22;11181;51.002;4.356;2023-01-29T06:33:52;3.60;99.90
22035;DHT22;11181;51.002;4.356;2023-01-29T06:36:19;3.70;99.90
22035;DHT22;11181;51.002;4.356;2023-01-29T06:38:46;3.80;99.90
22035;DHT22;11181;51.002;4.356;2023-01-29T06:41:16;3.80;99.90
22035;DHT22;11181;51.002;4.356;2023-01-29T06:43:44;3.80;99.90
22035;DHT22;11181;51.002;4.356;2023-01-29T06:46:12;3.80;99.90
22035;DHT22;11181;51.002;4.356;2023-01-29T06:48:39;3.80;99.90
22035;DHT22;11181;51.002;4.356;2023-01-29T06:51:08;3.70;99.90
22035;DHT22;11181;51.002;4.356;2023-01-29T06:53:36;3.70;99.90
22035;DHT22;11181;51.002;4.356;2023-01-29T06:56:04;3.60;99.90
22035;DHT22;11181;51.002;4.356;2023-01-29T06:58:31;3.60;99.90
22035;DHT22;11181;51.002;4.356;2023-01-29T07:01:02;3.60;99.90
22035;DHT22;11181;51.002;4.356;2023-01-29T07:03:31;3.80;99.90
22035;DHT22;11181;51.002;4.356;2023-01-29T07:05:58;3.90;99.90
22035;DHT22;11181;51.002;4.356;2023-01-29T07:08:25;4.00;99.90
22035;DHT22;11181;51.002;4.356;2023-01-29T07:10:53;4.20;99.90
22035;DHT22;11181;51.002;4.356;2023-01-29T07:13:24;4.30;99.90
22035;DHT22;11181;51.002;4.356;2023-01-29T07:15:51;4.20;99.90
22035;DHT22;11181;51.002;4.356;2023-01-29T07:18:19;4.10;99.90
22035;DHT22;11181;51.002;4.356;2023-01-29T07:20:48;3.70;99.90
22035;DHT22;11181;51.002;4.356;2023-01-29T07:23:15;3.50;99.90
22035;DHT22;11181;51.002;4.356;2023-01-29T07:25:42;3.50;99.90
22035;DHT22;11181;51.002;4.356;2023-01-29T07:28:09;3.40;99.90
22035;DHT22;11181;51.002;4.356;2023-01-29T07:30:36;3.40;99.90
22035;DHT22;11181;51.002;4.356;2023-01-29T07:33:04;3.40;99.90
22035;DHT22;11181;51.002;4.356;2023-01-29T07:35:34;3.30;99.90
22035;DHT22;11181;51.002;4.356;2023-01-29T07:38:03;3.20;99.90
22035;DHT22;11181;51.002;4.356;2023-01-29T07:40:30;3.30;99.90
22035;DHT22;11181;51.002;4.356;2023-01-29T07:42:57;3.40;99.90
22035;DHT22;11181;51.002;4.356;2023-01-29T07:45:25;3.50;99.90
22035;DHT22;11181;51.002;4.356;2023-01-29T07:47:52;3.60;99.90
22035;DHT22;11181;51.002;4.356;2023-01-29T07:50:20;3.60;99.90
22035;DHT22;11181;51.002;4.356;2023-01-29T07:52:47;3.80;99.90
22035;DHT22;11181;51.002;4.356;2023-01-29T07:55:15;3.90;99.90
22035;DHT22;11181;51.002;4.356;2023-01-29T07:57:42;3.90;99.90
22035;DHT22;11181;51.002;4.356;2023-01-29T08:00:11;3.80;99.90
22035;DHT22;11181;51.002;4.356;2023-01-29T08:02:39;3.80;99.90
22035;DHT22;11181;51.002;4.356;2023-01-29T08:05:06;3.90;99.90
22035;DHT22;11181;51.002;4.356;2023-01-29T08:07:33;4.00;99.90
22035;DHT22;11181;51.002;4.356;2023-01-29T08:10:00;4.10;99.90
22035;DHT22;11181;51.002;4.356;2023-01-29T08:12:29;4.20;99.90
22035;DHT22;11181;51.002;4.356;2023-01-29T08:14:56;4.40;99.90
22035;DHT22;11181;51.002;4.356;2023-01-29T08:17:23;4.50;99.90
22035;DHT22;11181;51.002;4.356;2023-01-29T08:19:49;4.50;99.90
22035;DHT22;11181;51.002;4.356;2023-01-29T08:22:16;4.60;99.90
22035;DHT22;11181;51.002;4.356;2023-01-29T08:24:43;4.50;99.90
22035;DHT22;11181;51.002;4.356;2023-01-29T08:27:10;4.40;99.90
22035;DHT22;11181;51.002;4.356;2023-01-29T08:29:38;4.30;99.90
22035;DHT22;11181;51.002;4.356;2023-01-29T08:32:08;4.20;99.90
22035;DHT22;11181;51.002;4.356;2023-01-29T08:34:36;4.20;99.90
22035;DHT22;11181;51.002;4.356;2023-01-29T08:37:03;4.30;99.90
22035;DHT22;11181;51.002;4.356;2023-01-29T08:39:30;4.20;99.90
22035;DHT22;11181;51.002;4.356;2023-01-29T08:41:57;4.10;99.90
22035;DHT22;11181;51.002;4.356;2023-01-29T08:44:24;3.90;99.90
22035;DHT22;11181;51.002;4.356;2023-01-29T08:46:52;3.70;99.90
22035;DHT22;11181;51.002;4.356;2023-01-29T08:49:19;3.60;99.90
22035;DHT22;11181;51.002;4.356;2023-01-29T08:51:46;3.60;99.90
22035;DHT22;11181;51.002;4.356;2023-01-29T08:54:13;3.60;99.90
22035;DHT22;11181;51.002;4.356;2023-01-29T08:56:40;3.70;99.90
22035;DHT22;11181;51.002;4.356;2023-01-29T08:59:08;3.70;99.90
22035;DHT22;11181;51.002;4.356;2023-01-29T09:01:35;3.70;99.90
22035;DHT22;11181;51.002;4.356;2023-01-29T09:04:04;3.80;99.90
22035;DHT22;11181;51.002;4.356;2023-01-29T09:06:31;3.90;99.90
22035;DHT22;11181;51.002;4.356;2023-01-29T09:08:58;3.90;99.90
22035;DHT22;11181;51.002;4.356;2023-01-29T09:11:25;3.90;99.90
22035;DHT22;11181;51.002;4.356;2023-01-29T09:13:52;3.90;99.90
22035;DHT22;11181;51.002;4.356;2023-01-29T09:16:19;3.80;99.90
22035;DHT22;11181;51.002;4.356;2023-01-29T09:18:46;3.70;99.90
22035;DHT22;11181;51.002;4.356;2023-01-29T09:21:15;3.80;99.90
22035;DHT22;11181;51.002;4.356;2023-01-29T09:23:42;3.90;99.90
22035;DHT22;11181;51.002;4.356;2023-01-29T09:26:09;3.80;99.90
22035;DHT22;11181;51.002;4.356;2023-01-29T09:28:36;3.90;99.90
22035;DHT22;11181;51.002;4.356;2023-01-29T09:31:03;4.00;99.90
22035;DHT22;11181;51.002;4.356;2023-01-29T09:33:30;3.90;99.90
22035;DHT22;11181;51.002;4.356;2023-01-29T09:35:57;4.00;99.90
22035;DHT22;11181;51.002;4.356;2023-01-29T09:38:25;4.00;99.90
22035;DHT22;11181;51.002;4.356;2023-01-29T09:40:59;4.00;99.90
22035;DHT22;11181;51.002;4.356;2023-01-29T09:43:39;4.00;99.90
22035;DHT22;11181;51.002;4.356;2023-01-29T09:46:14;4.00;99.90
22035;DHT22;11181;51.002;4.356;2023-01-29T09:48:43;3.90;99.90
22035;DHT22;11181;51.002;4.356;2023-01-29T09:51:15;3.90;99.90
22035;DHT22;11181;51.002;4.356;2023-01-29T09:53:53;3.60;99.90
22035;DHT22;11181;51.002;4.356;2023-01-29T09:56:24;3.70;99.90
22035;DHT22;11181;51.002;4.356;2023-01-29T09:58:56;3.70;99.90
22035;DHT22;11181;51.002;4.356;2023-01-29T10:01:29;3.80;99.90
22035;DHT22;11181;51.002;4.356;2023-01-29T10:04:14;3.90;99.90
22035;DHT22;11181;51.002;4.356;2023-01-29T10:07:02;3.90;99.90
22035;DHT22;11181;51.002;4.356;2023-01-29T10:10:11;3.80;99.90
22035;DHT22;11181;51.002;4.356;2023-01-29T10:12:55;3.80;99.90
22035;DHT22;11181;51.002;4.356;2023-01-29T10:15:34;3.90;99.90
22035;DHT22;11181;51.002;4.356;2023-01-29T10:18:43;3.80;99.90
22035;DHT22;11181;51.002;4.356;2023-01-29T10:21:31;4.00;99.90
22035;DHT22;11181;51.002;4.356;2023-01-29T10:24:10;3.90;99.90
22035;DHT22;11181;51.002;4.356;2023-01-29T10:26:41;3.80;99.90
22035;DHT22;11181;51.002;4.356;2023-01-29T10:29:14;3.90;99.90
22035;DHT22;11181;51.002;4.356;2023-01-29T10:31:42;4.10;99.90
22035;DHT22;11181;51.002;4.356;2023-01-29T10:34:13;4.30;99.90
22035;DHT22;11181;51.002;4.356;2023-01-29T10:36:44;4.30;99.90
22035;DHT22;11181;51.002;4.356;2023-01-29T10:39:15;4.40;99.90
22035;DHT22;11181;51.002;4.356;2023-01-29T10:42:01;4.40;99.90
22035;DHT22;11181;51.002;4.356;2023-01-29T10:44:52;4.30;99.90
22035;DHT22;11181;51.002;4.356;2023-01-29T10:47:37;4.30;99.90
22035;DHT22;11181;51.002;4.356;2023-01-29T10:50:16;4.40;99.90
22035;DHT22;11181;51.002;4.356;2023-01-29T10:52:57;4.40;99.90
22035;DHT22;11181;51.002;4.356;2023-01-29T10:55:38;4.50;99.90
22035;DHT22;11181;51.002;4.356;2023-01-29T10:58:16;4.20;99.90
22035;DHT22;11181;51.002;4.356;2023-01-29T11:00:44;4.20;99.90
22035;DHT22;11181;51.002;4.356;2023-01-29T11:03:15;4.20;99.90
22035;DHT22;11181;51.002;4.356;2023-01-29T11:05:46;4.30;99.90
22035;DHT22;11181;51.002;4.356;2023-01-29T11:08:20;4.40;99.90
22035;DHT22;11181;51.002;4.356;2023-01-29T11:10:53;4.50;99.90
22035;DHT22;11181;51.002;4.356;2023-01-29T11:13:30;4.30;99.90
22035;DHT22;11181;51.002;4.356;2023-01-29T11:15:57;4.30;99.90
22035;DHT22;11181;51.002;4.356;2023-01-29T11:18:24;4.30;99.90
22035;DHT22;11181;51.002;4.356;2023-01-29T11:20:59;4.40;99.90
22035;DHT22;11181;51.002;4.356;2023-01-29T11:23:30;4.50;99.90
22035;DHT22;11181;51.002;4.356;2023-01-29T11:25:59;4.50;99.90
22035;DHT22;11181;51.002;4.356;2023-01-29T11:28:38;4.50;99.90
22035;DHT22;11181;51.002;4.356;2023-01-29T11:31:19;4.50;99.90
22035;DHT22;11181;51.002;4.356;2023-01-29T11:33:47;4.60;99.90
22035;DHT22;11181;51.002;4.356;2023-01-29T11:36:20;4.60;99.90
22035;DHT22;11181;51.002;4.356;2023-01-29T11:39:08;4.60;99.90
22035;DHT22;11181;51.002;4.356;2023-01-29T11:41:42;4.60;99.90
22035;DHT22;11181;51.002;4.356;2023-01-29T11:44:21;4.60;99.90
22035;DHT22;11181;51.002;4.356;2023-01-29T11:46:55;4.50;99.90
22035;DHT22;11181;51.002;4.356;2023-01-29T11:49:30;4.60;99.90
22035;DHT22;11181;51.002;4.356;2023-01-29T11:52:00;4.70;99.90
22035;DHT22;11181;51.002;4.356;2023-01-29T11:54:31;4.80;99.90
22035;DHT22;11181;51.002;4.356;2023-01-29T11:57:00;4.80;99.90
22035;DHT22;11181;51.002;4.356;2023-01-29T11:59:40;4.90;99.90
22035;DHT22;11181;51.002;4.356;2023-01-29T12:02:28;5.00;99.90
22035;DHT22;11181;51.002;4.356;2023-01-29T12:04:59;5.00;99.90
22035;DHT22;11181;51.002;4.356;2023-01-29T12:07:27;4.90;99.90
22035;DHT22;11181;51.002;4.356;2023-01-29T12:09:56;4.90;99.90
22035;DHT22;11181;51.002;4.356;2023-01-29T12:12:33;5.00;99.90
22035;DHT22;11181;51.002;4.356;2023-01-29T12:15:18;5.00;99.90
22035;DHT22;11181;51.002;4.356;2023-01-29T12:17:54;5.10;99.90
22035;DHT22;11181;51.002;4.356;2023-01-29T12:20:28;5.20;99.90
22035;DHT22;11181;51.002;4.356;2023-01-29T12:23:02;5.20;99.90
22035;DHT22;11181;51.002;4.356;2023-01-29T12:25:40;5.30;99.90
22035;DHT22;11181;51.002;4.356;2023-01-29T12:28:21;5.30;99.90
22035;DHT22;11181;51.002;4.356;2023-01-29T12:31:02;5.40;99.90
22035;DHT22;11181;51.002;4.356;2023-01-29T12:33:38;5.30;99.90
22035;DHT22;11181;51.002;4.356;2023-01-29T12:36:11;5.20;99.90
22035;DHT22;11181;51.002;4.356;2023-01-29T12:38:40;5.20;99.90
22035;DHT22;11181;51.002;4.356;2023-01-29T12:41:23;5.10;99.90
22035;DHT22;11181;51.002;4.356;2023-01-29T12:43:53;5.10;99.90
22035;DHT22;11181;51.002;4.356;2023-01-29T12:46:26;5.20;99.90
22035;DHT22;11181;51.002;4.356;2023-01-29T12:48:56;5.40;99.90
22035;DHT22;11181;51.002;4.356;2023-01-29T12:51:30;5.40;99.90
22035;DHT22;11181;51.002;4.356;2023-01-29T12:54:02;5.30;99.90
22035;DHT22;11181;51.002;4.356;2023-01-29T12:56:34;5.30;99.90
22035;DHT22;11181;51.002;4.356;2023-01-29T12:59:09;5.40;99.90
22035;DHT22;11181;51.002;4.356;2023-01-29T13:01:43;5.30;99.90
22035;DHT22;11181;51.002;4.356;2023-01-29T13:04:15;5.10;99.90
22035;DHT22;11181;51.002;4.356;2023-01-29T13:06:48;5.10;99.90
22035;DHT22;11181;51.002;4.356;2023-01-29T13:09:23;5.20;99.90
22035;DHT22;11181;51.002;4.356;2023-01-29T13:11:52;5.20;99.90
22035;DHT22;11181;51.002;4.356;2023-01-29T13:14:23;5.30;99.90
22035;DHT22;11181;51.002;4.356;2023-01-29T13:16:59;5.20;99.90
22035;DHT22;11181;51.002;4.356;2023-01-29T13:19:31;4.90;99.90
22035;DHT22;11181;51.002;4.356;2023-01-29T13:22:02;5.00;99.90
22035;DHT22;11181;51.002;4.356;2023-01-29T13:24:35;5.00;99.90
22035;DHT22;11181;51.002;4.356;2023-01-29T13:27:05;5.10;99.90
22035;DHT22;11181;51.002;4.356;2023-01-29T13:29:32;5.10;99.90
22035;DHT22;11181;51.002;4.356;2023-01-29T13:32:02;5.20;99.90
22035;DHT22;11181;51.002;4.356;2023-01-29T13:34:31;5.20;99.90
22035;DHT22;11181;51.002;4.356;2023-01-29T13:37:01;5.30;99.90
22035;DHT22;11181;51.002;4.356;2023-01-29T13:39:31;5.30;99.90
22035;DHT22;11181;51.002;4.356;2023-01-29T13:42:00;5.40;99.90
22035;DHT22;11181;51.002;4.356;2023-01-29T13:44:32;5.40;99.90
22035;DHT22;11181;51.002;4.356;2023-01-29T13:47:03;5.40;99.90
22035;DHT22;11181;51.002;4.356;2023-01-29T13:49:37;5.50;99.90
22035;DHT22;11181;51.002;4.356;2023-01-29T13:52:18;5.50;99.90
22035;DHT22;11181;51.002;4.356;2023-01-29T13:54:53;5.50;99.90
22035;DHT22;11181;51.002;4.356;2023-01-29T13:57:50;5.50;99.90
22035;DHT22;11181;51.002;4.356;2023-01-29T14:03:43;5.20;99.90
22035;DHT22;11181;51.002;4.356;2023-01-29T14:06:10;5.30;99.90
22035;DHT22;11181;51.002;4.356;2023-01-29T14:08:39;5.30;99.90
22035;DHT22;11181;51.002;4.356;2023-01-29T14:11:27;5.40;99.90
22035;DHT22;11181;51.002;4.356;2023-01-29T14:13:58;5.30;99.90
22035;DHT22;11181;51.002;4.356;2023-01-29T14:16:31;5.40;99.90
22035;DHT22;11181;51.002;4.356;2023-01-29T14:19:02;5.50;99.90
22035;DHT22;11181;51.002;4.356;2023-01-29T14:21:31;5.50;99.90
22035;DHT22;11181;51.002;4.356;2023-01-29T14:24:10;5.40;99.90
22035;DHT22;11181;51.002;4.356;2023-01-29T14:26:43;5.40;99.90
22035;DHT22;11181;51.002;4.356;2023-01-29T14:29:19;5.50;99.90
22035;DHT22;11181;51.002;4.356;2023-01-29T14:31:52;5.50;99.90
22035;DHT22;11181;51.002;4.356;2023-01-29T14:34:24;5.60;99.90
22035;DHT22;11181;51.002;4.356;2023-01-29T14:36:54;5.50;99.90
22035;DHT22;11181;51.002;4.356;2023-01-29T14:39:27;5.50;99.90
22035;DHT22;11181;51.002;4.356;2023-01-29T14:41:56;5.50;99.90
22035;DHT22;11181;51.002;4.356;2023-01-29T14:44:54;5.50;99.90
22035;DHT22;11181;51.002;4.356;2023-01-29T14:47:50;5.40;99.90
22035;DHT22;11181;51.002;4.356;2023-01-29T14:50:46;5.50;99.90
22035;DHT22;11181;51.002;4.356;2023-01-29T14:53:23;5.60;99.90
22035;DHT22;11181;51.002;4.356;2023-01-29T14:55:57;5.50;99.90
22035;DHT22;11181;51.002;4.356;2023-01-29T14:58:33;5.60;99.90
22035;DHT22;11181;51.002;4.356;2023-01-29T15:01:04;5.50;99.90
22035;DHT22;11181;51.002;4.356;2023-01-29T15:03:38;5.50;99.90
22035;DHT22;11181;51.002;4.356;2023-01-29T15:06:16;5.60;99.90
22035;DHT22;11181;51.002;4.356;2023-01-29T15:08:49;5.60;99.90
22035;DHT22;11181;51.002;4.356;2023-01-29T15:11:25;5.60;99.90
22035;DHT22;11181;51.002;4.356;2023-01-29T15:14:10;5.70;99.90
22035;DHT22;11181;51.002;4.356;2023-01-29T15:16:46;5.70;99.90
22035;DHT22;11181;51.002;4.356;2023-01-29T15:19:20;5.70;99.90
22035;DHT22;11181;51.002;4.356;2023-01-29T15:22:04;5.70;99.90
22035;DHT22;11181;51.002;4.356;2023-01-29T15:24:32;5.80;99.90
22035;DHT22;11181;51.002;4.356;2023-01-29T15:27:00;5.80;99.90
22035;DHT22;11181;51.002;4.356;2023-01-29T15:29:28;5.80;99.90
22035;DHT22;11181;51.002;4.356;2023-01-29T15:31:55;5.70;99.90
22035;DHT22;11181;51.002;4.356;2023-01-29T15:34:23;5.70;99.90
22035;DHT22;11181;51.002;4.356;2023-01-29T15:36:50;5.70;99.90
22035;DHT22;11181;51.002;4.356;2023-01-29T15:39:20;5.50;99.90
22035;DHT22;11181;51.002;4.356;2023-01-29T15:41:48;5.50;99.90
22035;DHT22;11181;51.002;4.356;2023-01-29T15:44:18;5.50;99.90
22035;DHT22;11181;51.002;4.356;2023-01-29T15:46:48;5.40;99.90
22035;DHT22;11181;51.002;4.356;2023-01-29T15:49:19;5.30;99.90
22035;DHT22;11181;51.002;4.356;2023-01-29T15:51:54;5.20;99.90
22035;DHT22;11181;51.002;4.356;2023-01-29T15:54:24;5.10;99.90
22035;DHT22;11181;51.002;4.356;2023-01-29T15:56:56;5.10;99.90
22035;DHT22;11181;51.002;4.356;2023-01-29T15:59:26;5.10;99.90
22035;DHT22;11181;51.002;4.356;2023-01-29T16:01:54;5.10;99.90
22035;DHT22;11181;51.002;4.356;2023-01-29T16:04:24;4.90;99.90
22035;DHT22;11181;51.002;4.356;2023-01-29T16:06:54;4.80;99.90
22035;DHT22;11181;51.002;4.356;2023-01-29T16:09:24;4.90;99.90
22035;DHT22;11181;51.002;4.356;2023-01-29T16:11:53;4.90;99.90
22035;DHT22;11181;51.002;4.356;2023-01-29T16:14:23;5.00;99.90
22035;DHT22;11181;51.002;4.356;2023-01-29T16:16:51;5.00;99.90
22035;DHT22;11181;51.002;4.356;2023-01-29T16:19:21;4.90;99.90